Time;durP1;ratioP1;P1;durP2;ratioP2;P2;SDS_P1;SDS_P2;PMS_P1;PMS_P2;Temp;Humidity;BMP_temperature;BMP_pressure;BME280_temperature;BME280_humidity;BME280_pressure;Samples;Min_cycle;Max_cycle;Signal;HPM_P1;HPM_P2
2021/11/16 00:00:52;;;;;;;9.60;2.60;;;;;;;8.37;91.08;101964.75;6197189;22;20008;-91
2021/11/16 00:03:18;;;;;;;8.38;2.38;;;;;;;8.41;91.08;101972.56;6198417;22;20047;-88
2021/11/16 00:05:44;;;;;;;8.23;2.35;;;;;;;8.33;91.71;101954.44;6222339;22;20004;-89
2021/11/16 00:08:10;;;;;;;8.77;2.45;;;;;;;8.31;91.30;101951.06;6196511;22;20370;-89
2021/11/16 00:10:37;;;;;;;7.38;2.38;;;;;;;8.38;91.17;101970.97;6222188;22;20003;-89
2021/11/16 00:13:10;;;;;;;11.25;2.42;;;;;;;8.34;91.70;101966.88;6221279;22;20069;-90
2021/11/16 00:15:36;;;;;;;6.55;2.13;;;;;;;8.34;91.66;101967.72;6247498;22;20000;-89
2021/11/16 00:18:02;;;;;;;5.85;2.20;;;;;;;8.29;91.74;101953.00;6196618;22;20019;-90
2021/11/16 00:20:29;;;;;;;9.82;2.60;;;;;;;8.30;91.95;101946.66;6222218;22;20374;-90
2021/11/16 00:22:55;;;;;;;8.27;3.22;;;;;;;8.30;91.91;101946.66;6194768;22;20004;-89
2021/11/16 00:25:30;;;;;;;7.40;2.38;;;;;;;8.28;92.03;101945.94;6223134;22;20065;-89
2021/11/16 00:27:56;;;;;;;9.63;2.70;;;;;;;8.36;92.18;101963.06;6219675;22;20455;-90
2021/11/16 00:30:22;;;;;;;9.98;3.17;;;;;;;8.27;92.17;101945.09;6223468;22;20016;-88
2021/11/16 00:32:47;;;;;;;7.28;2.13;;;;;;;8.31;92.03;101953.72;6224488;22;20103;-92
2021/11/16 00:35:13;;;;;;;5.93;2.50;;;;;;;8.31;92.11;101951.91;6232565;23;20462;-90
2021/11/16 00:37:39;;;;;;;9.90;3.10;;;;;;;8.40;92.62;101960.16;6194158;22;20462;-89
2021/11/16 00:40:09;;;;;;;6.47;2.75;;;;;;;8.30;92.45;101947.50;6223910;22;20053;-88
2021/11/16 00:42:35;;;;;;;11.00;2.65;;;;;;;8.30;92.83;101938.63;6224010;22;20057;-88
2021/11/16 00:45:02;;;;;;;9.32;3.40;;;;;;;8.31;92.54;101943.84;6199572;22;20371;-91
2021/11/16 00:47:28;;;;;;;13.98;2.67;;;;;;;8.29;92.35;101932.41;6199287;22;20061;-88
2021/11/16 00:49:54;;;;;;;7.90;2.97;;;;;;;8.32;92.21;101926.78;6224066;22;20000;-90
2021/11/16 00:52:22;;;;;;;8.20;2.20;;;;;;;8.35;91.93;101931.03;6223916;22;20447;-90
2021/11/16 00:54:48;;;;;;;7.32;2.85;;;;;;;8.36;91.70;101922.88;6198889;22;20035;-90
2021/11/16 00:57:14;;;;;;;8.35;2.50;;;;;;;8.38;92.04;101923.56;6223078;22;20343;-90
2021/11/16 00:59:40;;;;;;;7.13;2.45;;;;;;;8.43;91.66;101931.25;6198544;22;20000;-89
2021/11/16 01:02:06;;;;;;;9.88;2.05;;;;;;;8.38;92.09;101920.03;6223370;22;20000;-91
2021/11/16 01:04:32;;;;;;;13.57;2.65;;;;;;;8.35;91.87;101913.13;6223159;22;20015;-89
2021/11/16 01:06:58;;;;;;;7.40;2.67;;;;;;;8.45;91.87;101933.81;6198191;22;20034;-89
2021/11/16 01:09:24;;;;;;;12.60;5.25;;;;;;;8.40;91.60;101925.31;6223629;22;20011;-90
2021/11/16 01:11:52;;;;;;;10.20;2.60;;;;;;;8.38;91.58;101912.00;6223594;22;20004;-88
2021/11/16 01:14:19;;;;;;;7.93;1.98;;;;;;;8.40;91.82;101919.97;6249022;22;20003;-88
2021/11/16 01:16:44;;;;;;;7.47;2.47;;;;;;;8.44;91.93;101924.06;6223765;22;20323;-88
2021/11/16 01:19:11;;;;;;;14.45;4.32;;;;;;;8.39;92.49;101916.44;6198492;22;20082;-87
2021/11/16 01:21:37;;;;;;;9.77;3.25;;;;;;;8.43;92.15;101919.69;6198575;22;20493;-89
2021/11/16 01:24:04;;;;;;;10.05;2.90;;;;;;;8.32;92.48;101891.94;6198081;22;20008;-89
2021/11/16 01:26:30;;;;;;;12.05;2.47;;;;;;;8.37;92.84;101900.44;6198772;22;20329;-90
2021/11/16 01:28:58;;;;;;;12.00;3.78;;;;;;;8.40;92.84;101903.88;6222807;22;20095;-90
2021/11/16 01:31:24;;;;;;;11.43;3.95;;;;;;;8.41;92.62;101894.84;6223529;22;20046;-91
2021/11/16 01:33:55;;;;;;;13.85;4.32;;;;;;;8.33;92.37;101868.69;6222899;22;20008;-88
2021/11/16 01:36:21;;;;;;;12.00;3.00;;;;;;;8.31;92.36;101870.66;6198857;22;20490;-91
2021/11/16 01:38:49;;;;;;;11.20;2.80;;;;;;;8.34;91.97;101865.88;6221148;22;20336;-87
2021/11/16 01:41:15;;;;;;;8.45;2.42;;;;;;;8.32;91.96;101857.13;6195982;22;20550;-87
2021/11/16 01:43:42;;;;;;;8.50;2.20;;;;;;;8.37;91.29;101857.56;6221548;22;20098;-92
2021/11/16 01:46:13;;;;;;;8.50;2.15;;;;;;;8.45;90.97;101867.66;6196891;22;20014;-89
2021/11/16 01:48:41;;;;;;;10.40;2.20;;;;;;;8.50;90.83;101875.28;6223937;22;20018;-88
2021/11/16 01:51:07;;;;;;;3.80;1.80;;;;;;;8.44;90.32;101857.91;6224443;22;20073;-88
2021/11/16 01:53:37;;;;;;;7.45;1.80;;;;;;;8.41;90.11;101833.19;6199430;22;20332;-89
2021/11/16 01:56:04;;;;;;;5.93;2.22;;;;;;;8.43;90.12;101837.44;6197893;22;20439;-89
2021/11/16 01:58:33;;;;;;;6.80;2.00;;;;;;;8.53;89.97;101838.31;6198785;22;20068;-88
2021/11/16 02:01:02;;;;;;;8.63;2.10;;;;;;;8.45;89.18;101811.34;6222459;22;20010;-89
2021/11/16 02:03:29;;;;;;;7.00;2.10;;;;;;;8.47;88.76;101806.72;6198544;22;20008;-89
2021/11/16 02:05:57;;;;;;;6.60;1.92;;;;;;;8.48;88.80;101807.56;6222883;22;20055;-87
2021/11/16 02:08:24;;;;;;;8.18;2.22;;;;;;;8.55;88.14;101812.25;6222872;22;20094;-90
2021/11/16 02:10:52;;;;;;;10.23;2.10;;;;;;;8.57;88.03;101809.41;6222622;22;20491;-89
2021/11/16 02:13:20;;;;;;;6.57;1.75;;;;;;;8.49;87.67;101798.53;6198224;22;20004;-89
2021/11/16 02:15:47;;;;;;;7.45;1.70;;;;;;;8.47;87.51;101790.63;6222775;22;20062;-89
2021/11/16 02:18:14;;;;;;;9.82;1.35;;;;;;;8.45;88.10;101795.28;6223103;22;20454;-90
2021/11/16 02:20:42;;;;;;;10.00;1.85;;;;;;;8.56;87.36;101813.09;6248328;22;20428;-91
2021/11/16 02:23:09;;;;;;;5.03;2.00;;;;;;;8.55;87.37;101798.00;6222223;22;20007;-91
2021/11/16 02:25:35;;;;;;;6.43;1.67;;;;;;;8.54;87.57;101796.28;6197201;22;20416;-90
2021/11/16 02:28:02;;;;;;;6.28;1.92;;;;;;;8.56;87.85;101807.72;6197137;22;20098;-88
2021/11/16 02:30:28;;;;;;;5.80;1.75;;;;;;;8.60;87.62;101819.88;6197179;22;20070;-89
2021/11/16 02:32:54;;;;;;;6.35;1.80;;;;;;;8.52;87.78;101796.44;6197181;22;20012;-89
2021/11/16 02:35:23;;;;;;;12.18;1.73;;;;;;;8.48;87.44;101792.31;6222641;22;20011;-91
2021/11/16 02:37:49;;;;;;;9.90;2.30;;;;;;;8.46;87.59;101793.44;6222082;22;20007;-92
2021/11/16 02:40:15;;;;;;;8.43;2.28;;;;;;;8.47;87.88;101779.06;6247974;22;20374;-89
2021/11/16 02:42:41;;;;;;;6.88;1.52;;;;;;;8.51;88.10;101791.19;6222788;22;20015;-91
2021/11/16 02:45:08;;;;;;;6.57;1.50;;;;;;;8.43;88.26;101775.78;6195250;22;20022;-89
2021/11/16 02:47:34;;;;;;;5.70;1.70;;;;;;;8.42;88.43;101773.28;6195386;22;20095;-89
2021/11/16 02:50:00;;;;;;;9.88;2.05;;;;;;;8.44;88.23;101777.50;6246647;22;20039;-88
2021/11/16 02:52:26;;;;;;;7.88;1.70;;;;;;;8.50;88.79;101779.63;6221115;22;20000;-92
2021/11/16 02:54:52;;;;;;;3.72;1.63;;;;;;;8.40;88.72;101753.78;6221936;22;20008;-90
2021/11/16 02:57:18;;;;;;;6.68;1.90;;;;;;;8.38;88.58;101735.13;6247373;22;20103;-88
2021/11/16 02:59:46;;;;;;;6.85;1.77;;;;;;;8.37;88.49;101746.84;6222203;22;20023;-92
2021/11/16 03:02:13;;;;;;;10.20;2.17;;;;;;;8.38;87.92;101732.44;6220203;22;20019;-90
2021/11/16 03:04:45;;;;;;;5.00;1.55;;;;;;;8.38;88.05;101738.66;6197340;22;20015;-87
2021/11/16 03:07:13;;;;;;;7.00;2.03;;;;;;;8.39;88.56;101736.88;6243226;23;20035;-91
2021/11/16 03:09:48;;;;;;;4.70;1.50;;;;;;;8.42;88.83;101743.78;6185569;23;20015;-89
2021/11/16 03:12:14;;;;;;;6.20;2.00;;;;;;;8.33;89.18;101726.66;6180476;23;20016;-90
2021/11/16 03:14:39;;;;;;;6.45;2.45;;;;;;;8.40;89.17;101738.56;6186429;23;20360;-89
2021/11/16 03:17:05;;;;;;;6.85;1.70;;;;;;;8.35;89.91;101722.84;6221223;22;20011;-87
2021/11/16 03:19:31;;;;;;;4.22;1.70;;;;;;;8.27;90.13;101722.69;6191612;23;20082;-91
2021/11/16 03:22:00;;;;;;;6.40;1.52;;;;;;;8.31;89.96;101716.09;6221172;22;20063;-90
2021/11/16 03:24:32;;;;;;;6.57;1.80;;;;;;;8.39;90.08;101728.84;6222651;22;20004;-91
2021/11/16 03:26:58;;;;;;;3.15;1.67;;;;;;;8.26;90.38;101707.59;6221758;22;20092;-90
2021/11/16 03:29:25;;;;;;;6.05;1.98;;;;;;;8.39;90.46;101728.84;6196423;22;20004;-89
2021/11/16 03:32:01;;;;;;;8.57;2.20;;;;;;;8.38;89.88;101725.25;6221284;22;20015;-89
2021/11/16 03:34:28;;;;;;;5.10;1.63;;;;;;;8.33;89.65;101715.94;6198552;22;20018;-88
2021/11/16 03:36:54;;;;;;;6.85;1.98;;;;;;;8.34;89.66;101710.44;6196732;22;20019;-90
2021/11/16 03:39:20;;;;;;;5.03;1.85;;;;;;;8.35;89.44;101717.47;6221039;22;19999;-90
2021/11/16 03:41:46;;;;;;;5.38;1.08;;;;;;;8.33;89.56;101710.56;6221639;22;20007;-86
2021/11/16 03:44:12;;;;;;;6.30;1.77;;;;;;;8.27;90.18;101698.56;6196484;22;20012;-87
2021/11/16 03:46:38;;;;;;;4.90;1.58;;;;;;;8.27;89.99;101687.84;6221171;22;20008;-90
2021/11/16 03:49:04;;;;;;;7.03;1.60;;;;;;;8.37;90.51;101699.44;6196194;22;20327;-87
2021/11/16 03:51:30;;;;;;;6.55;1.45;;;;;;;8.28;90.03;101683.34;6196727;22;20003;-91
2021/11/16 03:53:56;;;;;;;8.23;2.17;;;;;;;8.27;90.24;101679.81;6195712;22;20011;-89
2021/11/16 03:56:23;;;;;;;7.43;1.63;;;;;;;8.33;90.46;101687.28;6222289;22;20011;-91
2021/11/16 03:58:48;;;;;;;4.18;1.30;;;;;;;8.23;90.46;101669.50;6196707;22;20007;-88
2021/11/16 04:01:16;;;;;;;7.25;2.17;;;;;;;8.33;90.28;101687.28;6197546;22;20398;-88
2021/11/16 04:03:42;;;;;;;7.30;2.00;;;;;;;8.19;90.36;101658.22;6221539;22;20000;-88
2021/11/16 04:06:11;;;;;;;8.77;1.80;;;;;;;8.27;91.00;101679.81;6221463;22;20451;-86
2021/11/16 04:08:37;;;;;;;7.68;1.75;;;;;;;8.13;91.58;101656.94;6197511;22;20008;-88
2021/11/16 04:11:04;;;;;;;7.80;1.60;;;;;;;8.15;91.57;101656.84;6221087;22;20455;-91
2021/11/16 04:13:30;;;;;;;8.45;2.10;;;;;;;8.20;91.97;101664.44;6221948;22;19999;-87
2021/11/16 04:15:56;;;;;;;6.80;1.83;;;;;;;8.16;91.98;101658.50;6221679;22;20008;-87
2021/11/16 04:18:22;;;;;;;8.60;2.10;;;;;;;8.17;92.20;101654.84;6221422;22;20014;-91
2021/11/16 04:20:54;;;;;;;3.88;1.60;;;;;;;8.15;92.20;101654.16;6246651;22;20499;-88
2021/11/16 04:23:20;;;;;;;7.07;2.05;;;;;;;8.09;91.86;101643.97;6246726;22;20087;-88
2021/11/16 04:25:47;;;;;;;4.38;1.67;;;;;;;8.18;92.04;101658.34;6246568;22;20003;-89
2021/11/16 04:28:14;;;;;;;8.50;1.60;;;;;;;8.13;92.30;101656.13;6247122;22;20012;-90
2021/11/16 04:30:40;;;;;;;6.32;1.50;;;;;;;8.10;92.52;101657.22;6196342;22;20478;-92
2021/11/16 04:33:06;;;;;;;5.05;1.50;;;;;;;8.14;92.50;101668.50;6197158;22;20007;-87
2021/11/16 04:35:35;;;;;;;5.90;1.60;;;;;;;8.16;92.56;101666.53;6221340;22;20423;-87
2021/11/16 04:38:03;;;;;;;7.00;1.70;;;;;;;8.13;92.72;101656.13;6196752;22;20069;-88
2021/11/16 04:40:35;;;;;;;7.80;1.70;;;;;;;8.14;92.82;101657.78;6222255;22;20474;-90
2021/11/16 04:43:06;;;;;;;7.32;1.88;;;;;;;7.98;93.24;101636.91;6197452;22;20086;-87
2021/11/16 04:45:33;;;;;;;8.80;1.83;;;;;;;7.97;93.17;101639.72;6247343;22;20000;-87
2021/11/16 04:48:18;;;;;;;7.03;2.13;;;;;;;7.96;93.21;101635.34;6195749;22;20416;-88
2021/11/16 05:03:56;;;;;;;12.68;2.03;;;;;;;8.08;92.89;101628.91;6246266;22;20427;-90
2021/11/16 05:06:22;;;;;;;8.65;1.70;;;;;;;8.03;92.90;101633.81;6220992;22;20047;-89
2021/11/16 05:08:49;;;;;;;5.85;1.40;;;;;;;8.00;93.23;101623.38;6196338;22;20008;-89
2021/11/16 05:11:16;;;;;;;5.97;1.73;;;;;;;8.06;92.92;101628.19;6222842;22;20004;-87
2021/11/16 05:13:45;;;;;;;7.50;1.80;;;;;;;7.95;93.14;101607.72;6223289;22;20271;-88
2021/11/16 05:16:12;;;;;;;6.03;1.63;;;;;;;7.93;92.85;101602.50;6223779;22;20007;-87
2021/11/16 05:18:42;;;;;;;7.50;2.10;;;;;;;8.01;93.02;101614.34;6222762;22;20436;-91
2021/11/16 05:21:10;;;;;;;6.10;1.90;;;;;;;7.90;92.64;101597.41;6198107;22;20484;-91
2021/11/16 05:23:42;;;;;;;9.40;2.38;;;;;;;7.96;93.05;101605.88;6198656;22;20429;-89
2021/11/16 05:26:08;;;;;;;8.07;1.88;;;;;;;7.92;92.94;101608.84;6198998;22;20332;-88
2021/11/16 05:28:33;;;;;;;6.35;1.98;;;;;;;7.81;92.89;101592.91;6197407;22;20039;-87
2021/11/16 05:31:00;;;;;;;5.00;1.77;;;;;;;7.80;93.66;101590.34;6197525;22;20008;-88
2021/11/16 05:33:27;;;;;;;6.50;1.98;;;;;;;7.86;93.62;101606.72;6248022;22;20003;-90
2021/11/16 05:35:58;;;;;;;4.05;1.27;;;;;;;7.87;93.90;101602.22;6197594;22;20011;-89
2021/11/16 05:38:27;;;;;;;5.75;1.73;;;;;;;7.77;93.93;101582.59;6198745;22;20081;-87
2021/11/16 05:40:53;;;;;;;9.40;2.33;;;;;;;7.77;94.00;101575.41;6222417;22;20012;-90
2021/11/16 05:43:19;;;;;;;10.35;1.70;;;;;;;7.81;93.87;101582.19;6198495;22;20505;-91
2021/11/16 05:45:45;;;;;;;7.40;1.52;;;;;;;7.80;93.76;101571.59;6222264;22;20154;-90
2021/11/16 05:48:12;;;;;;;7.82;2.20;;;;;;;7.89;94.27;101579.66;6222368;22;20000;-91
2021/11/16 05:50:38;;;;;;;5.30;1.55;;;;;;;7.92;94.29;101579.38;6221363;22;20454;-89
2021/11/16 05:53:08;;;;;;;4.50;1.40;;;;;;;7.95;93.55;101585.44;6248195;22;20027;-88
2021/11/16 05:55:34;;;;;;;5.30;1.55;;;;;;;7.93;93.86;101580.22;6222517;22;20018;-86
2021/11/16 05:58:00;;;;;;;8.77;1.50;;;;;;;8.00;93.78;101592.09;6248101;22;20004;-90
2021/11/16 06:00:26;;;;;;;8.85;1.58;;;;;;;7.95;93.32;101569.38;6220813;22;20011;-88
2021/11/16 06:02:53;;;;;;;4.15;1.48;;;;;;;7.97;93.18;101570.94;6220931;22;20042;-88
2021/11/16 06:05:20;;;;;;;7.93;1.38;;;;;;;8.02;93.22;101576.72;6196994;22;20098;-86
2021/11/16 06:07:45;;;;;;;2.05;0.88;;;;;;;8.07;93.68;101582.50;6195182;22;20018;-88
2021/11/16 06:10:11;;;;;;;4.32;1.10;;;;;;;7.96;93.84;101553.16;6197550;22;20003;-90
2021/11/16 06:12:37;;;;;;;3.72;1.30;;;;;;;8.05;93.58;101567.56;6222049;22;20008;-88
2021/11/16 06:15:04;;;;;;;3.08;1.33;;;;;;;7.98;93.57;101556.56;6222219;22;20023;-88
2021/11/16 06:17:30;;;;;;;5.70;1.50;;;;;;;8.02;94.27;101568.69;6221666;22;20498;-89
2021/11/16 06:19:56;;;;;;;6.95;1.17;;;;;;;7.91;94.73;101556.28;6222401;22;20004;-89
2021/11/16 06:22:22;;;;;;;3.97;1.30;;;;;;;7.85;95.01;101540.75;6247263;22;20003;-89
2021/11/16 06:24:48;;;;;;;8.98;1.65;;;;;;;7.93;95.13;101554.28;6197095;22;20004;-89
2021/11/16 06:27:14;;;;;;;7.40;1.42;;;;;;;8.00;94.87;101559.94;6197133;22;20010;-89
2021/11/16 06:29:39;;;;;;;5.43;1.33;;;;;;;7.89;95.28;101542.19;6198228;22;20082;-91
2021/11/16 06:32:07;;;;;;;4.20;1.50;;;;;;;7.85;95.64;101532.72;6197067;22;20023;-93
2021/11/16 06:34:34;;;;;;;4.75;1.42;;;;;;;7.88;95.68;101535.09;6221618;22;20012;-89
2021/11/16 06:36:59;;;;;;;7.03;1.45;;;;;;;7.87;96.04;101541.47;6196877;22;20027;-87
2021/11/16 06:39:25;;;;;;;11.52;1.48;;;;;;;7.88;95.57;101540.47;6196784;22;20006;-89
2021/11/16 06:41:51;;;;;;;6.82;1.67;;;;;;;7.86;96.36;101542.47;6196931;22;20095;-88
2021/11/16 06:44:19;;;;;;;6.25;1.80;;;;;;;7.85;96.34;101538.06;6197196;22;20047;-89
2021/11/16 06:46:46;;;;;;;6.43;1.48;;;;;;;7.91;95.90;101542.03;6196580;22;20010;-87
2021/11/16 06:49:12;;;;;;;4.55;1.58;;;;;;;7.89;96.07;101531.47;6221882;22;20007;-90
2021/11/16 06:51:39;;;;;;;2.65;1.17;;;;;;;7.84;95.80;101519.47;6221845;22;20007;-88
2021/11/16 06:54:05;;;;;;;5.15;1.58;;;;;;;7.80;95.87;101518.91;6196571;22;20107;-90
2021/11/16 06:56:31;;;;;;;6.35;1.50;;;;;;;7.82;95.98;101524.97;6222087;22;20239;-90
2021/11/16 06:58:56;;;;;;;4.97;1.80;;;;;;;7.78;96.29;101515.53;6196674;22;20003;-87
2021/11/16 07:01:22;;;;;;;3.80;1.38;;;;;;;7.69;96.34;101500.28;6196434;22;20035;-89
2021/11/16 07:03:49;;;;;;;6.75;1.70;;;;;;;7.70;96.25;101502.00;6248055;22;20004;-92
2021/11/16 07:06:17;;;;;;;8.98;1.75;;;;;;;7.70;95.93;101499.31;6223252;22;20026;-87
2021/11/16 07:08:44;;;;;;;11.07;1.90;;;;;;;7.67;96.31;101488.88;6196746;22;20160;-87
2021/11/16 07:11:21;;;;;;;5.47;1.35;;;;;;;7.82;96.35;101511.56;6197163;22;20329;-88
2021/11/16 07:14:05;;;;;;;5.90;1.48;;;;;;;7.81;96.12;101493.84;6246935;22;20039;-90
2021/11/16 07:16:32;;;;;;;5.53;1.45;;;;;;;7.90;96.03;101503.69;6221206;22;20004;-91
2021/11/16 07:19:00;;;;;;;7.90;2.10;;;;;;;7.93;95.99;101510.59;6196061;22;20010;-87
2021/11/16 07:21:27;;;;;;;4.55;1.65;;;;;;;7.92;96.56;101511.59;6246142;22;20014;-90
2021/11/16 07:24:05;;;;;;;7.88;1.73;;;;;;;7.94;96.69;101509.63;6196518;22;20007;-89
2021/11/16 07:26:39;;;;;;;5.72;1.60;;;;;;;7.95;96.11;101510.47;6222804;22;20031;-90
2021/11/16 07:29:07;;;;;;;10.27;3.08;;;;;;;7.82;96.93;101483.97;6199025;22;20031;-89
2021/11/16 07:31:36;;;;;;;7.07;1.85;;;;;;;7.89;96.40;101498.50;6223063;22;20034;-88
2021/11/16 07:34:20;;;;;;;3.70;1.60;;;;;;;7.89;96.97;101493.97;6198821;22;20008;-88
2021/11/16 07:37:19;;;;;;;9.13;1.85;;;;;;;7.86;97.27;101483.56;6214555;22;20015;-88
2021/11/16 07:39:51;;;;;;;6.88;1.63;;;;;;;7.87;97.94;101479.88;6159601;22;20074;-91
2021/11/16 07:42:18;;;;;;;4.63;1.70;;;;;;;7.86;97.22;101478.19;6206636;23;20012;-90
2021/11/16 07:45:05;;;;;;;3.78;1.50;;;;;;;7.86;97.56;101480.03;6218660;22;20296;-89
2021/11/16 07:47:57;;;;;;;4.38;1.40;;;;;;;7.84;98.14;101480.16;6222208;22;20046;-88
2021/11/16 07:50:32;;;;;;;7.15;1.83;;;;;;;7.87;98.06;101484.38;6222833;22;20343;-88
2021/11/16 07:53:18;;;;;;;7.00;1.83;;;;;;;7.86;97.83;101490.75;6222833;22;20003;-89
2021/11/16 07:56:09;;;;;;;10.73;2.00;;;;;;;7.88;98.24;101497.63;6197701;22;20014;-93
2021/11/16 07:58:42;;;;;;;4.18;1.58;;;;;;;7.88;97.97;101486.06;6198123;22;20090;-89
2021/11/16 08:01:16;;;;;;;5.55;1.42;;;;;;;7.92;97.92;101501.72;6223236;22;20027;-89
2021/11/16 08:03:57;;;;;;;5.75;1.40;;;;;;;7.97;97.73;101495.13;6198028;22;20038;-88
2021/11/16 08:06:34;;;;;;;5.38;1.40;;;;;;;8.00;97.89;101500.19;6248094;22;20020;-90
2021/11/16 08:09:26;;;;;;;6.13;1.42;;;;;;;7.99;98.38;101498.47;6225098;22;20064;-89
2021/11/16 08:11:54;;;;;;;6.15;1.25;;;;;;;7.96;98.29;101504.13;6252052;22;20057;-91
2021/11/16 08:14:20;;;;;;;5.20;1.55;;;;;;;7.90;98.96;101494.81;6217629;23;20008;-89
2021/11/16 08:16:51;;;;;;;5.07;1.60;;;;;;;7.90;99.71;101498.34;6181252;22;20004;-87
2021/11/16 08:19:20;;;;;;;7.13;1.63;;;;;;;7.77;99.67;101460.28;6222541;22;20003;-88
2021/11/16 08:21:56;;;;;;;7.22;1.42;;;;;;;7.79;100.00;101469.03;6214557;22;20008;-88
2021/11/16 08:24:25;;;;;;;15.63;1.63;;;;;;;7.86;100.00;101472.00;6222968;22;20014;-88
2021/11/16 08:26:52;;;;;;;2.33;1.20;;;;;;;7.91;100.00;101467.91;6248076;22;20065;-87
2021/11/16 08:29:30;;;;;;;11.73;2.17;;;;;;;7.97;100.00;101490.59;6207520;23;20004;-86
2021/11/16 08:32:06;;;;;;;4.32;1.00;;;;;;;7.91;100.00;101475.94;6245334;22;20007;-87
2021/11/16 08:34:36;;;;;;;6.32;1.88;;;;;;;7.89;100.00;101461.84;6221463;22;20019;-88
2021/11/16 08:37:06;;;;;;;4.60;1.20;;;;;;;8.05;100.00;101493.41;6196164;22;20022;-91
2021/11/16 08:39:34;;;;;;;2.67;1.25;;;;;;;8.10;100.00;101507.22;6221277;22;20011;-89
2021/11/16 08:42:02;;;;;;;6.15;1.13;;;;;;;8.11;100.00;101494.69;6220677;22;20050;-91
2021/11/16 08:44:32;;;;;;;5.22;0.93;;;;;;;8.04;100.00;101496.22;6222322;22;20018;-90
2021/11/16 08:47:09;;;;;;;4.13;1.25;;;;;;;8.01;100.00;101504.53;6225691;22;20011;-88
2021/11/16 08:49:36;;;;;;;3.55;1.50;;;;;;;7.90;100.00;101498.34;6199660;22;20027;-90
2021/11/16 08:52:15;;;;;;;2.28;1.30;;;;;;;7.90;100.00;101497.50;6224194;22;20082;-89
2021/11/16 08:54:42;;;;;;;6.82;1.63;;;;;;;7.97;100.00;101497.78;6200329;22;20065;-88
2021/11/16 08:57:20;;;;;;;4.70;1.65;;;;;;;7.95;100.00;101497.09;6198918;22;20031;-90
2021/11/16 08:59:49;;;;;;;8.75;1.88;;;;;;;7.93;100.00;101484.66;6223273;22;20007;-92
2021/11/16 09:02:17;;;;;;;4.75;1.38;;;;;;;8.09;100.00;101494.81;6223077;22;20008;-90
2021/11/16 09:04:49;;;;;;;4.63;1.60;;;;;;;8.10;100.00;101485.81;6224720;22;20094;-89
2021/11/16 09:07:28;;;;;;;5.07;1.55;;;;;;;8.21;100.00;101487.47;6250771;22;20309;-88
2021/11/16 09:09:58;;;;;;;4.68;1.70;;;;;;;8.14;100.00;101475.63;6199954;22;20018;-90
2021/11/16 09:12:42;;;;;;;8.85;3.47;;;;;;;8.30;100.00;101493.81;6200180;22;20104;-89
2021/11/16 09:15:11;;;;;;;10.57;3.42;;;;;;;8.36;100.00;101496.78;6224854;22;20033;-88
2021/11/16 09:17:38;;;;;;;8.75;2.72;;;;;;;8.37;100.00;101490.41;6225236;22;20011;-90
2021/11/16 09:20:22;;;;;;;7.63;3.80;;;;;;;8.43;100.00;101486.34;6250131;22;20003;-89
2021/11/16 09:23:04;;;;;;;8.93;3.53;;;;;;;8.52;100.00;101496.22;6225341;22;20004;-89
2021/11/16 09:25:32;;;;;;;10.18;4.15;;;;;;;8.56;100.00;101491.41;6237760;23;20054;-87
2021/11/16 09:28:12;;;;;;;5.13;2.78;;;;;;;8.59;100.00;101475.88;6196466;22;20335;-92
2021/11/16 09:30:42;;;;;;;6.22;2.60;;;;;;;8.69;100.00;101486.56;6227438;22;20347;-92
2021/11/16 09:33:19;;;;;;;5.00;1.98;;;;;;;8.69;100.00;101462.44;6201148;22;20008;-91
2021/11/16 09:35:52;;;;;;;7.40;2.13;;;;;;;8.76;100.00;101474.28;6225435;22;20610;-94
2021/11/16 09:38:47;;;;;;;7.07;2.92;;;;;;;8.84;100.00;101481.59;6200028;22;20008;-92
2021/11/16 09:41:16;;;;;;;10.45;1.92;;;;;;;8.71;100.00;101456.94;6222057;22;20006;-91
2021/11/16 09:43:42;;;;;;;7.95;2.55;;;;;;;8.70;100.00;101456.06;6223899;22;20007;-94
2021/11/16 09:46:12;;;;;;;6.90;3.47;;;;;;;8.78;100.00;101472.28;6224188;22;20004;-92
2021/11/16 09:48:39;;;;;;;11.93;2.53;;;;;;;8.92;100.00;101472.81;6225371;22;20455;-90
2021/11/16 09:51:19;;;;;;;5.78;1.50;;;;;;;8.96;100.00;101450.06;6225386;22;20008;-92
2021/11/16 09:54:03;;;;;;;8.38;2.67;;;;;;;9.03;100.00;101467.25;6225280;22;20004;-92
2021/11/16 09:56:30;;;;;;;3.30;1.52;;;;;;;9.11;100.00;101474.56;6224703;22;20428;-91
2021/11/16 09:59:04;;;;;;;7.85;1.85;;;;;;;8.99;100.00;101457.81;6225664;22;20450;-93
2021/11/16 10:01:37;;;;;;;10.13;3.30;;;;;;;9.05;100.00;101467.09;6226199;22;19999;-94
2021/11/16 10:04:08;;;;;;;7.70;3.28;;;;;;;9.08;100.00;101470.34;6200521;22;20062;-90
2021/11/16 10:06:38;;;;;;;9.60;3.50;;;;;;;9.15;100.00;101468.72;6224976;22;20019;-93
2021/11/16 10:09:09;;;;;;;4.93;3.22;;;;;;;9.29;100.00;101479.94;6198544;22;20020;-92
2021/11/16 10:11:41;;;;;;;7.45;2.75;;;;;;;9.33;100.00;101467.94;6200206;22;20007;-94
2021/11/16 10:14:11;;;;;;;5.40;2.50;;;;;;;9.36;100.00;101460.41;6224381;22;20011;-91
2021/11/16 10:16:38;;;;;;;4.93;2.40;;;;;;;9.45;100.00;101458.69;6224740;22;20109;-90
2021/11/16 10:19:05;;;;;;;5.53;2.60;;;;;;;9.49;100.00;101452.00;6224371;22;20018;-93
2021/11/16 10:21:32;;;;;;;8.80;2.33;;;;;;;9.51;100.00;101447.34;6224990;22;20004;-90
2021/11/16 10:24:00;;;;;;;3.95;1.33;;;;;;;9.55;100.00;101455.91;6200015;22;20309;-91
2021/11/16 10:26:34;;;;;;;10.10;4.47;;;;;;;9.48;100.00;101438.75;6224795;22;20069;-93
2021/11/16 10:29:02;;;;;;;2.03;1.48;;;;;;;9.54;100.00;101449.72;6224011;22;20008;-92
2021/11/16 10:31:30;;;;;;;7.40;2.05;;;;;;;9.55;100.00;101440.69;6224805;22;20096;-93
2021/11/16 10:33:58;;;;;;;19.70;4.38;;;;;;;9.52;100.00;101437.44;6224071;22;20514;-94
2021/11/16 10:36:38;;;;;;;10.57;2.53;;;;;;;9.65;100.00;101446.78;6224477;22;20016;-91
2021/11/16 10:39:04;;;;;;;9.73;3.88;;;;;;;9.72;100.00;101424.72;6199737;22;20018;-92
2021/11/16 10:41:35;;;;;;;5.22;2.55;;;;;;;9.91;100.00;101446.03;6224362;22;20007;-92
2021/11/16 10:44:10;;;;;;;8.90;2.75;;;;;;;10.00;100.00;101429.00;6224285;22;20004;-93
2021/11/16 10:46:43;;;;;;;10.48;2.08;;;;;;;10.07;100.00;101419.31;6224557;22;20378;-91
2021/11/16 10:49:15;;;;;;;5.00;2.10;;;;;;;10.26;100.00;101428.16;6199487;22;20008;-93
2021/11/16 10:51:46;;;;;;;7.05;2.22;;;;;;;10.46;100.00;101399.28;6223526;22;20503;-92
2021/11/16 10:54:23;;;;;;;12.10;3.08;;;;;;;11.01;99.13;101388.09;6223993;22;20032;-93
2021/11/16 10:56:57;;;;;;;7.80;2.65;;;;;;;11.38;97.07;101370.69;6198900;22;20003;-90
2021/11/16 10:59:29;;;;;;;7.85;2.83;;;;;;;11.58;96.01;101361.25;6224141;22;20057;-90
2021/11/16 11:01:56;;;;;;;9.88;4.15;;;;;;;11.91;94.26;101336.19;6224149;22;20003;-92
2021/11/16 11:04:24;;;;;;;12.77;3.00;;;;;;;12.08;92.64;101335.16;6223932;22;20008;-94
2021/11/16 11:06:51;;;;;;;10.80;3.50;;;;;;;12.19;92.02;101347.44;6198057;22;20086;-93
2021/11/16 11:09:22;;;;;;;16.38;2.28;;;;;;;12.31;90.08;101346.91;6223616;22;20012;-93
2021/11/16 11:11:54;;;;;;;6.88;2.40;;;;;;;12.53;89.14;101333.69;6198818;22;20110;-92
2021/11/16 11:14:21;;;;;;;8.65;3.80;;;;;;;12.67;88.44;101332.09;6224281;22;20019;-92
2021/11/16 11:17:01;;;;;;;9.23;2.65;;;;;;;12.26;88.85;101330.41;6199297;22;20008;-91
2021/11/16 11:19:35;;;;;;;8.55;3.58;;;;;;;11.96;89.91;101326.59;6198820;22;20003;-95
2021/11/16 11:22:24;;;;;;;7.22;1.75;;;;;;;11.77;90.38;101343.91;6223321;22;20094;-95
2021/11/16 11:25:01;;;;;;;4.75;1.50;;;;;;;11.49;91.05;101319.19;6224157;22;20011;-93
2021/11/16 11:28:29;;;;;;;6.78;1.25;;;;;;;11.36;91.15;101313.47;6223860;22;20007;-92
2021/11/16 11:30:24;;;;;;;6.53;1.50;;;;;;;11.23;91.35;101312.09;6221156;22;20320;-90
2021/11/16 11:32:54;;;;;;;5.53;1.25;;;;;;;11.17;92.04;101314.63;6199452;22;20086;-92
2021/11/16 11:35:23;;;;;;;4.22;1.23;;;;;;;11.11;92.13;101309.88;6223689;22;20042;-89
2021/11/16 11:38:12;;;;;;;6.40;2.15;;;;;;;11.17;91.98;101299.31;6223473;22;20012;-91
2021/11/16 11:40:40;;;;;;;3.10;1.13;;;;;;;11.18;92.03;101310.91;6198841;22;20420;-90
2021/11/16 11:43:17;;;;;;;3.53;1.27;;;;;;;11.26;92.06;101319.00;6223955;22;20007;-90
2021/11/16 11:45:46;;;;;;;4.22;1.33;;;;;;;11.40;91.32;101322.88;6224030;22;20012;-89
2021/11/16 11:48:21;;;;;;;8.90;1.45;;;;;;;11.43;90.92;101318.00;6248343;22;20099;-94
2021/11/16 11:50:59;;;;;;;7.40;1.77;;;;;;;11.55;90.80;101325.75;6198488;22;20007;-91
2021/11/16 11:53:30;;;;;;;13.50;1.65;;;;;;;11.58;90.29;101322.72;6223195;22;20011;-93